sensor_id;sensor_type;location;lat;lon;timestamp;temperature;humidity
9907;DHT22;4992;51.628;6.664;2022-11-15T00:00:05;8.70;99.90
9907;DHT22;4992;51.628;6.664;2022-11-15T00:02:30;8.70;99.90
9907;DHT22;4992;51.628;6.664;2022-11-15T00:04:56;8.70;99.90
9907;DHT22;4992;51.628;6.664;2022-11-15T00:07:21;8.70;99.90
9907;DHT22;4992;51.628;6.664;2022-11-15T00:09:47;8.70;99.90
9907;DHT22;4992;51.628;6.664;2022-11-15T00:12:12;8.80;99.90
9907;DHT22;4992;51.628;6.664;2022-11-15T00:14:38;8.80;99.90
9907;DHT22;4992;51.628;6.664;2022-11-15T00:17:04;8.80;99.90
9907;DHT22;4992;51.628;6.664;2022-11-15T00:19:29;8.80;99.90
9907;DHT22;4992;51.628;6.664;2022-11-15T00:21:55;8.80;99.90
9907;DHT22;4992;51.628;6.664;2022-11-15T00:24:20;8.80;99.90
9907;DHT22;4992;51.628;6.664;2022-11-15T00:26:46;8.80;99.90
9907;DHT22;4992;51.628;6.664;2022-11-15T00:29:11;8.80;99.90
9907;DHT22;4992;51.628;6.664;2022-11-15T00:31:37;8.90;99.90
9907;DHT22;4992;51.628;6.664;2022-11-15T00:34:02;8.90;99.90
9907;DHT22;4992;51.628;6.664;2022-11-15T00:36:28;8.90;99.90
9907;DHT22;4992;51.628;6.664;2022-11-15T00:38:53;8.90;99.90
9907;DHT22;4992;51.628;6.664;2022-11-15T00:41:19;9.00;99.90
9907;DHT22;4992;51.628;6.664;2022-11-15T00:43:44;9.00;99.90
9907;DHT22;4992;51.628;6.664;2022-11-15T00:46:10;9.00;99.90
9907;DHT22;4992;51.628;6.664;2022-11-15T00:48:36;9.10;99.90
9907;DHT22;4992;51.628;6.664;2022-11-15T00:51:01;9.10;99.90
9907;DHT22;4992;51.628;6.664;2022-11-15T00:53:27;9.20;99.90
9907;DHT22;4992;51.628;6.664;2022-11-15T00:55:53;9.20;99.90
9907;DHT22;4992;51.628;6.664;2022-11-15T00:58:18;9.30;99.90
9907;DHT22;4992;51.628;6.664;2022-11-15T01:00:44;9.30;99.90
9907;DHT22;4992;51.628;6.664;2022-11-15T01:03:09;9.40;99.90
9907;DHT22;4992;51.628;6.664;2022-11-15T01:05:37;9.40;99.90
9907;DHT22;4992;51.628;6.664;2022-11-15T01:08:03;9.40;99.90
9907;DHT22;4992;51.628;6.664;2022-11-15T01:10:28;9.50;99.90
9907;DHT22;4992;51.628;6.664;2022-11-15T01:12:54;9.50;99.90
9907;DHT22;4992;51.628;6.664;2022-11-15T01:15:20;9.50;99.90
9907;DHT22;4992;51.628;6.664;2022-11-15T01:17:45;9.60;99.90
9907;DHT22;4992;51.628;6.664;2022-11-15T01:20:11;9.70;99.90
9907;DHT22;4992;51.628;6.664;2022-11-15T01:22:37;9.70;99.90
9907;DHT22;4992;51.628;6.664;2022-11-15T01:25:02;9.80;99.90
9907;DHT22;4992;51.628;6.664;2022-11-15T01:27:28;9.80;99.90
9907;DHT22;4992;51.628;6.664;2022-11-15T01:29:53;9.90;99.90
9907;DHT22;4992;51.628;6.664;2022-11-15T01:32:19;9.90;99.90
9907;DHT22;4992;51.628;6.664;2022-11-15T01:34:44;10.00;99.90
9907;DHT22;4992;51.628;6.664;2022-11-15T01:37:10;10.00;99.90
9907;DHT22;4992;51.628;6.664;2022-11-15T01:39:35;10.10;99.90
9907;DHT22;4992;51.628;6.664;2022-11-15T01:42:01;10.10;99.90
9907;DHT22;4992;51.628;6.664;2022-11-15T01:44:51;10.20;99.90
9907;DHT22;4992;51.628;6.664;2022-11-15T01:47:33;10.20;99.90
9907;DHT22;4992;51.628;6.664;2022-11-15T01:50:04;10.20;99.90
9907;DHT22;4992;51.628;6.664;2022-11-15T01:52:33;10.30;99.90
9907;DHT22;4992;51.628;6.664;2022-11-15T01:57:28;10.30;99.90
9907;DHT22;4992;51.628;6.664;2022-11-15T01:59:54;10.40;99.90
9907;DHT22;4992;51.628;6.664;2022-11-15T02:02:20;10.40;99.90
9907;DHT22;4992;51.628;6.664;2022-11-15T02:04:46;10.50;99.90
9907;DHT22;4992;51.628;6.664;2022-11-15T02:07:16;10.50;99.90
9907;DHT22;4992;51.628;6.664;2022-11-15T02:09:42;10.50;99.90
9907;DHT22;4992;51.628;6.664;2022-11-15T02:12:09;10.60;99.90
9907;DHT22;4992;51.628;6.664;2022-11-15T02:14:38;10.60;99.90
9907;DHT22;4992;51.628;6.664;2022-11-15T02:17:21;10.70;99.90
9907;DHT22;4992;51.628;6.664;2022-11-15T02:20:42;10.70;99.90
9907;DHT22;4992;51.628;6.664;2022-11-15T02:23:31;10.80;99.90
9907;DHT22;4992;51.628;6.664;2022-11-15T02:29:05;10.80;99.90
9907;DHT22;4992;51.628;6.664;2022-11-15T02:32:02;10.90;99.90
9907;DHT22;4992;51.628;6.664;2022-11-15T02:37:59;11.00;99.90
9907;DHT22;4992;51.628;6.664;2022-11-15T02:40:38;11.00;99.90
9907;DHT22;4992;51.628;6.664;2022-11-15T02:43:11;11.00;99.90
9907;DHT22;4992;51.628;6.664;2022-11-15T02:46:09;11.10;99.90
9907;DHT22;4992;51.628;6.664;2022-11-15T02:48:37;11.10;99.90
9907;DHT22;4992;51.628;6.664;2022-11-15T02:51:04;11.10;99.90
9907;DHT22;4992;51.628;6.664;2022-11-15T02:53:29;11.10;99.90
9907;DHT22;4992;51.628;6.664;2022-11-15T02:55:56;11.10;99.90
9907;DHT22;4992;51.628;6.664;2022-11-15T02:59:00;11.20;99.90
9907;DHT22;4992;51.628;6.664;2022-11-15T03:01:53;11.20;99.90
9907;DHT22;4992;51.628;6.664;2022-11-15T03:10:20;11.20;99.90
9907;DHT22;4992;51.628;6.664;2022-11-15T03:12:57;11.30;99.90
9907;DHT22;4992;51.628;6.664;2022-11-15T03:15:31;11.30;99.90
9907;DHT22;4992;51.628;6.664;2022-11-15T03:18:04;11.30;99.90
9907;DHT22;4992;51.628;6.664;2022-11-15T03:20:32;11.30;99.90
9907;DHT22;4992;51.628;6.664;2022-11-15T03:23:08;11.30;99.90
9907;DHT22;4992;51.628;6.664;2022-11-15T03:25:40;11.30;99.90
9907;DHT22;4992;51.628;6.664;2022-11-15T03:28:09;11.40;99.90
9907;DHT22;4992;51.628;6.664;2022-11-15T03:30:37;11.40;99.90
9907;DHT22;4992;51.628;6.664;2022-11-15T03:33:04;11.40;99.90
9907;DHT22;4992;51.628;6.664;2022-11-15T03:35:37;11.30;99.90
9907;DHT22;4992;51.628;6.664;2022-11-15T03:38:26;11.40;99.90
9907;DHT22;4992;51.628;6.664;2022-11-15T03:40:58;11.30;99.90
9907;DHT22;4992;51.628;6.664;2022-11-15T03:43:35;11.30;99.90
9907;DHT22;4992;51.628;6.664;2022-11-15T03:46:11;11.40;99.90
9907;DHT22;4992;51.628;6.664;2022-11-15T03:48:43;11.40;99.90
9907;DHT22;4992;51.628;6.664;2022-11-15T03:51:11;11.50;99.90
9907;DHT22;4992;51.628;6.664;2022-11-15T03:53:37;11.50;99.90
9907;DHT22;4992;51.628;6.664;2022-11-15T03:56:02;11.50;99.90
9907;DHT22;4992;51.628;6.664;2022-11-15T03:58:28;11.50;99.90
9907;DHT22;4992;51.628;6.664;2022-11-15T04:00:53;11.50;99.90
9907;DHT22;4992;51.628;6.664;2022-11-15T04:03:19;11.50;99.90
9907;DHT22;4992;51.628;6.664;2022-11-15T04:05:44;11.50;99.90
9907;DHT22;4992;51.628;6.664;2022-11-15T04:08:10;11.50;99.90
9907;DHT22;4992;51.628;6.664;2022-11-15T04:10:35;11.50;99.90
9907;DHT22;4992;51.628;6.664;2022-11-15T04:13:02;11.50;99.90
9907;DHT22;4992;51.628;6.664;2022-11-15T04:15:27;11.50;99.90
9907;DHT22;4992;51.628;6.664;2022-11-15T04:17:56;11.50;99.90
9907;DHT22;4992;51.628;6.664;2022-11-15T04:20:25;11.50;99.90
9907;DHT22;4992;51.628;6.664;2022-11-15T04:23:11;11.50;99.90
9907;DHT22;4992;51.628;6.664;2022-11-15T04:25:56;11.50;99.90
9907;DHT22;4992;51.628;6.664;2022-11-15T04:28:23;11.50;99.90
9907;DHT22;4992;51.628;6.664;2022-11-15T04:30:49;11.50;99.90
9907;DHT22;4992;51.628;6.664;2022-11-15T04:33:14;11.50;99.90
9907;DHT22;4992;51.628;6.664;2022-11-15T04:35:41;11.40;99.90
9907;DHT22;4992;51.628;6.664;2022-11-15T04:38:08;11.40;99.90
9907;DHT22;4992;51.628;6.664;2022-11-15T04:40:34;11.40;99.90
9907;DHT22;4992;51.628;6.664;2022-11-15T04:43:00;11.50;99.90
9907;DHT22;4992;51.628;6.664;2022-11-15T04:45:25;11.50;99.90
9907;DHT22;4992;51.628;6.664;2022-11-15T04:47:51;11.40;99.90
9907;DHT22;4992;51.628;6.664;2022-11-15T04:50:17;11.40;99.90
9907;DHT22;4992;51.628;6.664;2022-11-15T04:52:48;11.40;99.90
9907;DHT22;4992;51.628;6.664;2022-11-15T04:55:14;11.40;99.90
9907;DHT22;4992;51.628;6.664;2022-11-15T04:57:40;11.40;99.90
9907;DHT22;4992;51.628;6.664;2022-11-15T05:00:08;11.40;99.90
9907;DHT22;4992;51.628;6.664;2022-11-15T05:02:34;11.40;99.90
9907;DHT22;4992;51.628;6.664;2022-11-15T05:05:18;11.40;99.90
9907;DHT22;4992;51.628;6.664;2022-11-15T05:07:44;11.30;99.90
9907;DHT22;4992;51.628;6.664;2022-11-15T05:10:09;11.30;99.90
9907;DHT22;4992;51.628;6.664;2022-11-15T05:12:35;11.30;99.90
9907;DHT22;4992;51.628;6.664;2022-11-15T05:15:01;11.30;99.90
9907;DHT22;4992;51.628;6.664;2022-11-15T05:17:26;11.40;99.90
9907;DHT22;4992;51.628;6.664;2022-11-15T05:19:52;11.30;99.90
9907;DHT22;4992;51.628;6.664;2022-11-15T05:22:18;11.30;99.90
9907;DHT22;4992;51.628;6.664;2022-11-15T05:24:44;11.30;99.90
9907;DHT22;4992;51.628;6.664;2022-11-15T05:27:09;11.30;99.90
9907;DHT22;4992;51.628;6.664;2022-11-15T05:29:35;11.30;99.90
9907;DHT22;4992;51.628;6.664;2022-11-15T05:32:00;11.30;99.90
9907;DHT22;4992;51.628;6.664;2022-11-15T05:34:26;11.30;99.90
9907;DHT22;4992;51.628;6.664;2022-11-15T05:36:52;11.30;99.90
9907;DHT22;4992;51.628;6.664;2022-11-15T05:39:18;11.30;99.90
9907;DHT22;4992;51.628;6.664;2022-11-15T05:41:47;11.30;99.90
9907;DHT22;4992;51.628;6.664;2022-11-15T05:44:18;11.30;99.90
9907;DHT22;4992;51.628;6.664;2022-11-15T05:46:44;11.30;99.90
9907;DHT22;4992;51.628;6.664;2022-11-15T05:49:14;11.30;99.90
9907;DHT22;4992;51.628;6.664;2022-11-15T05:51:42;11.30;99.90
9907;DHT22;4992;51.628;6.664;2022-11-15T05:54:10;11.30;99.90
9907;DHT22;4992;51.628;6.664;2022-11-15T05:56:36;11.30;99.90
9907;DHT22;4992;51.628;6.664;2022-11-15T05:59:02;11.30;99.90
9907;DHT22;4992;51.628;6.664;2022-11-15T06:01:28;11.30;99.90
9907;DHT22;4992;51.628;6.664;2022-11-15T06:03:53;11.30;99.90
9907;DHT22;4992;51.628;6.664;2022-11-15T06:06:19;11.30;99.90
9907;DHT22;4992;51.628;6.664;2022-11-15T06:08:44;11.30;99.90
9907;DHT22;4992;51.628;6.664;2022-11-15T06:11:10;11.30;99.90
9907;DHT22;4992;51.628;6.664;2022-11-15T06:13:36;11.30;99.90
9907;DHT22;4992;51.628;6.664;2022-11-15T06:16:01;11.30;99.90
9907;DHT22;4992;51.628;6.664;2022-11-15T06:18:27;11.30;99.90
9907;DHT22;4992;51.628;6.664;2022-11-15T06:20:52;11.30;99.90
9907;DHT22;4992;51.628;6.664;2022-11-15T06:23:18;11.30;99.90
9907;DHT22;4992;51.628;6.664;2022-11-15T06:25:43;11.30;99.90
9907;DHT22;4992;51.628;6.664;2022-11-15T06:28:09;11.30;99.90
9907;DHT22;4992;51.628;6.664;2022-11-15T06:30:34;11.30;99.90
9907;DHT22;4992;51.628;6.664;2022-11-15T06:33:01;11.40;99.90
9907;DHT22;4992;51.628;6.664;2022-11-15T06:35:28;11.40;99.90
9907;DHT22;4992;51.628;6.664;2022-11-15T06:37:54;11.40;99.90
9907;DHT22;4992;51.628;6.664;2022-11-15T06:40:19;11.40;99.90
9907;DHT22;4992;51.628;6.664;2022-11-15T06:42:45;11.40;99.90
9907;DHT22;4992;51.628;6.664;2022-11-15T06:45:10;11.40;99.90
9907;DHT22;4992;51.628;6.664;2022-11-15T06:47:36;11.50;99.90
9907;DHT22;4992;51.628;6.664;2022-11-15T06:50:09;11.50;99.90
9907;DHT22;4992;51.628;6.664;2022-11-15T06:52:34;11.50;99.90
9907;DHT22;4992;51.628;6.664;2022-11-15T06:55:00;11.50;99.90
9907;DHT22;4992;51.628;6.664;2022-11-15T06:57:25;11.60;99.90
9907;DHT22;4992;51.628;6.664;2022-11-15T06:59:51;11.60;99.90
9907;DHT22;4992;51.628;6.664;2022-11-15T07:02:16;11.60;99.90
9907;DHT22;4992;51.628;6.664;2022-11-15T07:04:42;11.60;99.90
9907;DHT22;4992;51.628;6.664;2022-11-15T07:07:07;11.60;99.90
9907;DHT22;4992;51.628;6.664;2022-11-15T07:09:33;11.60;99.90
9907;DHT22;4992;51.628;6.664;2022-11-15T07:11:58;11.60;99.90
9907;DHT22;4992;51.628;6.664;2022-11-15T07:14:24;11.60;99.90
9907;DHT22;4992;51.628;6.664;2022-11-15T07:16:49;11.60;99.90
9907;DHT22;4992;51.628;6.664;2022-11-15T07:19:15;11.70;99.90
9907;DHT22;4992;51.628;6.664;2022-11-15T07:21:40;11.70;99.90
9907;DHT22;4992;51.628;6.664;2022-11-15T07:24:06;11.70;99.90
9907;DHT22;4992;51.628;6.664;2022-11-15T07:26:31;11.70;99.90
9907;DHT22;4992;51.628;6.664;2022-11-15T07:28:57;11.70;99.90
9907;DHT22;4992;51.628;6.664;2022-11-15T07:31:22;11.70;99.90
9907;DHT22;4992;51.628;6.664;2022-11-15T07:33:48;11.70;99.90
9907;DHT22;4992;51.628;6.664;2022-11-15T07:36:13;11.70;99.90
9907;DHT22;4992;51.628;6.664;2022-11-15T07:38:39;11.70;99.90
9907;DHT22;4992;51.628;6.664;2022-11-15T07:41:05;11.70;99.90
9907;DHT22;4992;51.628;6.664;2022-11-15T07:43:31;11.80;99.90
9907;DHT22;4992;51.628;6.664;2022-11-15T07:45:59;11.70;99.90
9907;DHT22;4992;51.628;6.664;2022-11-15T07:48:29;11.80;99.90
9907;DHT22;4992;51.628;6.664;2022-11-15T07:50:55;11.80;99.90
9907;DHT22;4992;51.628;6.664;2022-11-15T07:53:20;11.90;99.90
9907;DHT22;4992;51.628;6.664;2022-11-15T07:55:46;11.90;99.90
9907;DHT22;4992;51.628;6.664;2022-11-15T07:58:12;11.90;99.90
9907;DHT22;4992;51.628;6.664;2022-11-15T08:00:37;11.90;99.90
9907;DHT22;4992;51.628;6.664;2022-11-15T08:03:09;11.90;99.90
9907;DHT22;4992;51.628;6.664;2022-11-15T08:05:35;11.90;99.90
9907;DHT22;4992;51.628;6.664;2022-11-15T08:08:02;11.90;99.90
9907;DHT22;4992;51.628;6.664;2022-11-15T08:10:28;11.90;99.90
9907;DHT22;4992;51.628;6.664;2022-11-15T08:13:12;11.90;99.90
9907;DHT22;4992;51.628;6.664;2022-11-15T08:15:38;11.90;99.90
9907;DHT22;4992;51.628;6.664;2022-11-15T08:18:06;11.90;99.90
9907;DHT22;4992;51.628;6.664;2022-11-15T08:20:32;12.00;99.90
9907;DHT22;4992;51.628;6.664;2022-11-15T08:22:59;12.00;99.90
9907;DHT22;4992;51.628;6.664;2022-11-15T08:25:26;11.90;99.90
9907;DHT22;4992;51.628;6.664;2022-11-15T08:27:53;11.90;99.90
9907;DHT22;4992;51.628;6.664;2022-11-15T08:30:18;11.90;99.90
9907;DHT22;4992;51.628;6.664;2022-11-15T08:32:44;11.90;99.90
9907;DHT22;4992;51.628;6.664;2022-11-15T08:35:10;11.90;99.90
9907;DHT22;4992;51.628;6.664;2022-11-15T08:37:36;11.90;99.90
9907;DHT22;4992;51.628;6.664;2022-11-15T08:40:01;11.90;99.90
9907;DHT22;4992;51.628;6.664;2022-11-15T08:42:27;11.80;99.90
9907;DHT22;4992;51.628;6.664;2022-11-15T08:44:53;11.80;99.90
9907;DHT22;4992;51.628;6.664;2022-11-15T08:47:18;11.80;99.90
9907;DHT22;4992;51.628;6.664;2022-11-15T08:49:44;11.70;99.90
9907;DHT22;4992;51.628;6.664;2022-11-15T08:52:09;11.70;99.90
9907;DHT22;4992;51.628;6.664;2022-11-15T08:54:35;11.70;99.90
9907;DHT22;4992;51.628;6.664;2022-11-15T08:57:00;11.60;99.90
9907;DHT22;4992;51.628;6.664;2022-11-15T08:59:26;11.50;99.90
9907;DHT22;4992;51.628;6.664;2022-11-15T09:01:51;11.40;99.90
9907;DHT22;4992;51.628;6.664;2022-11-15T09:04:17;11.40;99.90
9907;DHT22;4992;51.628;6.664;2022-11-15T09:09:14;11.30;99.90
9907;DHT22;4992;51.628;6.664;2022-11-15T09:11:40;11.30;99.90
9907;DHT22;4992;51.628;6.664;2022-11-15T09:14:05;11.30;99.90
9907;DHT22;4992;51.628;6.664;2022-11-15T09:16:31;11.30;99.90
9907;DHT22;4992;51.628;6.664;2022-11-15T09:18:57;11.40;99.90
9907;DHT22;4992;51.628;6.664;2022-11-15T09:21:22;11.40;99.90
9907;DHT22;4992;51.628;6.664;2022-11-15T09:23:50;11.40;99.90
9907;DHT22;4992;51.628;6.664;2022-11-15T09:26:17;11.40;99.90
9907;DHT22;4992;51.628;6.664;2022-11-15T09:28:43;11.40;99.90
9907;DHT22;4992;51.628;6.664;2022-11-15T09:31:08;11.50;99.90
9907;DHT22;4992;51.628;6.664;2022-11-15T09:33:35;11.50;99.90
9907;DHT22;4992;51.628;6.664;2022-11-15T09:36:02;11.60;99.90
9907;DHT22;4992;51.628;6.664;2022-11-15T09:38:28;11.60;99.90
9907;DHT22;4992;51.628;6.664;2022-11-15T09:49:09;11.90;99.90
9907;DHT22;4992;51.628;6.664;2022-11-15T09:51:41;12.00;99.90
9907;DHT22;4992;51.628;6.664;2022-11-15T09:54:27;12.10;99.90
9907;DHT22;4992;51.628;6.664;2022-11-15T09:56:56;12.10;99.90
9907;DHT22;4992;51.628;6.664;2022-11-15T10:00:05;12.10;99.90
9907;DHT22;4992;51.628;6.664;2022-11-15T10:02:55;12.10;99.90
9907;DHT22;4992;51.628;6.664;2022-11-15T10:05:24;12.10;99.90
9907;DHT22;4992;51.628;6.664;2022-11-15T10:07:57;12.00;99.90
9907;DHT22;4992;51.628;6.664;2022-11-15T10:10:32;12.10;99.90
9907;DHT22;4992;51.628;6.664;2022-11-15T10:13:00;12.10;99.90
9907;DHT22;4992;51.628;6.664;2022-11-15T10:15:26;12.00;99.90
9907;DHT22;4992;51.628;6.664;2022-11-15T10:20:39;12.10;99.90
9907;DHT22;4992;51.628;6.664;2022-11-15T10:23:06;12.20;99.90
9907;DHT22;4992;51.628;6.664;2022-11-15T10:25:35;12.20;99.90
9907;DHT22;4992;51.628;6.664;2022-11-15T10:30:49;12.20;99.90
9907;DHT22;4992;51.628;6.664;2022-11-15T10:33:34;12.20;99.90
9907;DHT22;4992;51.628;6.664;2022-11-15T10:47:26;12.40;99.90
9907;DHT22;4992;51.628;6.664;2022-11-15T10:49:56;12.50;99.90
9907;DHT22;4992;51.628;6.664;2022-11-15T10:52:22;12.60;99.90
9907;DHT22;4992;51.628;6.664;2022-11-15T10:54:56;12.70;99.90
9907;DHT22;4992;51.628;6.664;2022-11-15T10:57:28;12.80;99.90
9907;DHT22;4992;51.628;6.664;2022-11-15T10:59:58;12.80;99.90
9907;DHT22;4992;51.628;6.664;2022-11-15T11:02:33;12.90;99.90
9907;DHT22;4992;51.628;6.664;2022-11-15T11:04:59;13.00;99.90
9907;DHT22;4992;51.628;6.664;2022-11-15T11:07:30;13.10;99.90
9907;DHT22;4992;51.628;6.664;2022-11-15T11:10:02;13.20;99.90
9907;DHT22;4992;51.628;6.664;2022-11-15T11:12:30;13.20;99.90
9907;DHT22;4992;51.628;6.664;2022-11-15T11:15:09;13.40;99.90
9907;DHT22;4992;51.628;6.664;2022-11-15T11:18:04;13.50;99.90
9907;DHT22;4992;51.628;6.664;2022-11-15T11:20:36;13.80;99.90
9907;DHT22;4992;51.628;6.664;2022-11-15T11:23:19;14.00;99.90
9907;DHT22;4992;51.628;6.664;2022-11-15T11:28:34;14.20;99.90
9907;DHT22;4992;51.628;6.664;2022-11-15T11:31:29;14.30;99.90
9907;DHT22;4992;51.628;6.664;2022-11-15T11:36:51;14.50;99.90
9907;DHT22;4992;51.628;6.664;2022-11-15T11:39:33;14.50;99.90
9907;DHT22;4992;51.628;6.664;2022-11-15T11:47:47;14.40;99.90
9907;DHT22;4992;51.628;6.664;2022-11-15T11:50:18;14.50;99.90
9907;DHT22;4992;51.628;6.664;2022-11-15T11:52:56;14.60;99.90
9907;DHT22;4992;51.628;6.664;2022-11-15T12:08:53;15.70;99.90
9907;DHT22;4992;51.628;6.664;2022-11-15T12:13:58;15.80;99.90
9907;DHT22;4992;51.628;6.664;2022-11-15T12:16:32;16.20;99.90
9907;DHT22;4992;51.628;6.664;2022-11-15T12:19:03;16.80;99.90
9907;DHT22;4992;51.628;6.664;2022-11-15T12:21:55;17.50;99.90
9907;DHT22;4992;51.628;6.664;2022-11-15T12:24:42;18.00;99.90
9907;DHT22;4992;51.628;6.664;2022-11-15T12:27:44;18.40;99.90
9907;DHT22;4992;51.628;6.664;2022-11-15T12:30:12;18.30;99.90
9907;DHT22;4992;51.628;6.664;2022-11-15T12:32:48;18.00;99.90
9907;DHT22;4992;51.628;6.664;2022-11-15T12:35:40;17.40;99.90
9907;DHT22;4992;51.628;6.664;2022-11-15T12:38:10;16.80;99.90
9907;DHT22;4992;51.628;6.664;2022-11-15T12:41:12;16.60;99.90
9907;DHT22;4992;51.628;6.664;2022-11-15T12:43:43;16.20;99.90
9907;DHT22;4992;51.628;6.664;2022-11-15T12:49:03;16.20;99.90
9907;DHT22;4992;51.628;6.664;2022-11-15T13:17:48;18.80;99.90
9907;DHT22;4992;51.628;6.664;2022-11-15T13:22:41;18.70;99.90
9907;DHT22;4992;51.628;6.664;2022-11-15T13:28:02;19.00;99.90
9907;DHT22;4992;51.628;6.664;2022-11-15T13:30:30;18.80;99.90
9907;DHT22;4992;51.628;6.664;2022-11-15T13:33:09;18.60;99.90
9907;DHT22;4992;51.628;6.664;2022-11-15T13:35:39;18.10;99.90
9907;DHT22;4992;51.628;6.664;2022-11-15T13:38:06;17.70;99.90
9907;DHT22;4992;51.628;6.664;2022-11-15T13:40:36;17.40;99.90
9907;DHT22;4992;51.628;6.664;2022-11-15T13:43:36;17.10;99.90
9907;DHT22;4992;51.628;6.664;2022-11-15T13:46:16;16.70;99.90
9907;DHT22;4992;51.628;6.664;2022-11-15T13:48:43;16.70;99.90
9907;DHT22;4992;51.628;6.664;2022-11-15T13:51:24;16.70;99.90
9907;DHT22;4992;51.628;6.664;2022-11-15T13:54:00;16.50;99.90
9907;DHT22;4992;51.628;6.664;2022-11-15T13:56:27;16.50;99.90
9907;DHT22;4992;51.628;6.664;2022-11-15T13:58:54;16.80;99.90
9907;DHT22;4992;51.628;6.664;2022-11-15T14:01:21;16.80;99.90
9907;DHT22;4992;51.628;6.664;2022-11-15T14:03:57;17.00;99.90
9907;DHT22;4992;51.628;6.664;2022-11-15T14:06:25;17.10;99.90
9907;DHT22;4992;51.628;6.664;2022-11-15T14:11:32;17.10;99.90
9907;DHT22;4992;51.628;6.664;2022-11-15T14:16:47;16.70;99.90
9907;DHT22;4992;51.628;6.664;2022-11-15T14:19:34;16.60;99.90
9907;DHT22;4992;51.628;6.664;2022-11-15T14:25:03;16.10;99.90
9907;DHT22;4992;51.628;6.664;2022-11-15T14:27:31;16.00;99.90
9907;DHT22;4992;51.628;6.664;2022-11-15T14:29:57;15.70;99.90
9907;DHT22;4992;51.628;6.664;2022-11-15T14:32:24;15.50;99.90
9907;DHT22;4992;51.628;6.664;2022-11-15T14:34:59;15.30;99.90
9907;DHT22;4992;51.628;6.664;2022-11-15T14:37:30;15.00;99.90
9907;DHT22;4992;51.628;6.664;2022-11-15T14:40:01;14.80;99.90
9907;DHT22;4992;51.628;6.664;2022-11-15T14:42:27;14.70;99.90
9907;DHT22;4992;51.628;6.664;2022-11-15T14:44:53;14.60;99.90
9907;DHT22;4992;51.628;6.664;2022-11-15T14:47:19;14.40;99.90
9907;DHT22;4992;51.628;6.664;2022-11-15T14:49:44;14.30;99.90
9907;DHT22;4992;51.628;6.664;2022-11-15T14:52:29;14.20;99.90
9907;DHT22;4992;51.628;6.664;2022-11-15T14:54:55;14.10;99.90
9907;DHT22;4992;51.628;6.664;2022-11-15T14:57:21;14.00;99.90
9907;DHT22;4992;51.628;6.664;2022-11-15T14:59:47;14.00;99.90
9907;DHT22;4992;51.628;6.664;2022-11-15T15:02:22;13.90;99.90
9907;DHT22;4992;51.628;6.664;2022-11-15T15:04:49;13.90;99.90
9907;DHT22;4992;51.628;6.664;2022-11-15T15:09:44;13.70;99.90
9907;DHT22;4992;51.628;6.664;2022-11-15T15:12:19;13.70;99.90
9907;DHT22;4992;51.628;6.664;2022-11-15T15:14:45;13.70;99.90
9907;DHT22;4992;51.628;6.664;2022-11-15T15:17:11;13.70;99.90
9907;DHT22;4992;51.628;6.664;2022-11-15T15:19:37;13.60;99.90
9907;DHT22;4992;51.628;6.664;2022-11-15T15:22:02;13.60;99.90
9907;DHT22;4992;51.628;6.664;2022-11-15T15:24:28;13.50;99.90
9907;DHT22;4992;51.628;6.664;2022-11-15T15:26:53;13.50;99.90
9907;DHT22;4992;51.628;6.664;2022-11-15T15:29:19;13.50;99.90
9907;DHT22;4992;51.628;6.664;2022-11-15T15:31:44;13.50;99.90
9907;DHT22;4992;51.628;6.664;2022-11-15T15:34:09;13.40;99.90
9907;DHT22;4992;51.628;6.664;2022-11-15T15:36:35;13.50;99.90
9907;DHT22;4992;51.628;6.664;2022-11-15T15:39:00;13.50;99.90
9907;DHT22;4992;51.628;6.664;2022-11-15T15:41:26;13.40;99.90
9907;DHT22;4992;51.628;6.664;2022-11-15T15:43:52;13.40;99.90
9907;DHT22;4992;51.628;6.664;2022-11-15T15:46:18;13.40;99.90
9907;DHT22;4992;51.628;6.664;2022-11-15T15:48:45;13.40;99.90
9907;DHT22;4992;51.628;6.664;2022-11-15T15:51:11;13.30;99.90
9907;DHT22;4992;51.628;6.664;2022-11-15T15:53:37;13.30;99.90
9907;DHT22;4992;51.628;6.664;2022-11-15T15:56:03;13.30;99.90
9907;DHT22;4992;51.628;6.664;2022-11-15T15:58:28;13.30;99.90
9907;DHT22;4992;51.628;6.664;2022-11-15T16:00:54;13.30;99.90
9907;DHT22;4992;51.628;6.664;2022-11-15T16:03:19;13.30;99.90
9907;DHT22;4992;51.628;6.664;2022-11-15T16:05:45;13.30;99.90
9907;DHT22;4992;51.628;6.664;2022-11-15T16:08:22;13.30;99.90
9907;DHT22;4992;51.628;6.664;2022-11-15T16:10:48;13.30;99.90
9907;DHT22;4992;51.628;6.664;2022-11-15T16:13:14;13.20;99.90
9907;DHT22;4992;51.628;6.664;2022-11-15T16:15:40;13.20;99.90
9907;DHT22;4992;51.628;6.664;2022-11-15T16:18:12;13.20;99.90
9907;DHT22;4992;51.628;6.664;2022-11-15T16:20:42;13.20;99.90
9907;DHT22;4992;51.628;6.664;2022-11-15T16:23:14;13.20;99.90
9907;DHT22;4992;51.628;6.664;2022-11-15T16:25:54;13.20;99.90
9907;DHT22;4992;51.628;6.664;2022-11-15T16:28:25;13.20;99.90
9907;DHT22;4992;51.628;6.664;2022-11-15T16:31:04;13.20;99.90
9907;DHT22;4992;51.628;6.664;2022-11-15T16:33:30;13.30;99.90
9907;DHT22;4992;51.628;6.664;2022-11-15T16:35:56;13.30;99.90
9907;DHT22;4992;51.628;6.664;2022-11-15T16:38:21;13.30;99.90
9907;DHT22;4992;51.628;6.664;2022-11-15T16:40:47;13.40;99.90
9907;DHT22;4992;51.628;6.664;2022-11-15T16:43:12;13.40;99.90
9907;DHT22;4992;51.628;6.664;2022-11-15T16:45:38;13.40;99.90
9907;DHT22;4992;51.628;6.664;2022-11-15T16:48:04;13.40;99.90
9907;DHT22;4992;51.628;6.664;2022-11-15T16:50:33;13.40;99.90
9907;DHT22;4992;51.628;6.664;2022-11-15T16:53:04;13.40;99.90
9907;DHT22;4992;51.628;6.664;2022-11-15T16:55:29;13.40;99.90
9907;DHT22;4992;51.628;6.664;2022-11-15T16:57:55;13.50;99.90
9907;DHT22;4992;51.628;6.664;2022-11-15T17:00:26;13.50;99.90
9907;DHT22;4992;51.628;6.664;2022-11-15T17:02:52;13.50;99.90
9907;DHT22;4992;51.628;6.664;2022-11-15T17:05:20;13.60;99.90
9907;DHT22;4992;51.628;6.664;2022-11-15T17:07:47;13.60;99.90
9907;DHT22;4992;51.628;6.664;2022-11-15T17:10:19;13.60;99.90
9907;DHT22;4992;51.628;6.664;2022-11-15T17:12:45;13.60;99.90
9907;DHT22;4992;51.628;6.664;2022-11-15T17:15:11;13.60;99.90
9907;DHT22;4992;51.628;6.664;2022-11-15T17:17:37;13.50;99.90
9907;DHT22;4992;51.628;6.664;2022-11-15T17:20:04;13.50;99.90
9907;DHT22;4992;51.628;6.664;2022-11-15T17:22:35;13.50;99.90
9907;DHT22;4992;51.628;6.664;2022-11-15T17:25:01;13.50;99.90
9907;DHT22;4992;51.628;6.664;2022-11-15T17:27:26;13.50;99.90
9907;DHT22;4992;51.628;6.664;2022-11-15T17:29:52;13.50;99.90
9907;DHT22;4992;51.628;6.664;2022-11-15T17:32:17;13.40;99.90
9907;DHT22;4992;51.628;6.664;2022-11-15T17:34:43;13.40;99.90
9907;DHT22;4992;51.628;6.664;2022-11-15T17:37:08;13.40;99.90
9907;DHT22;4992;51.628;6.664;2022-11-15T17:39:34;13.40;99.90
9907;DHT22;4992;51.628;6.664;2022-11-15T17:41:59;13.50;99.90
9907;DHT22;4992;51.628;6.664;2022-11-15T17:44:25;13.40;99.90
9907;DHT22;4992;51.628;6.664;2022-11-15T17:46:50;13.50;99.90
9907;DHT22;4992;51.628;6.664;2022-11-15T17:49:16;13.40;99.90
9907;DHT22;4992;51.628;6.664;2022-11-15T17:51:41;13.40;99.90
9907;DHT22;4992;51.628;6.664;2022-11-15T17:54:09;13.40;99.90
9907;DHT22;4992;51.628;6.664;2022-11-15T17:56:38;13.40;99.90
9907;DHT22;4992;51.628;6.664;2022-11-15T17:59:06;13.40;99.90
9907;DHT22;4992;51.628;6.664;2022-11-15T18:01:34;13.40;99.90
9907;DHT22;4992;51.628;6.664;2022-11-15T18:04:01;13.40;99.90
9907;DHT22;4992;51.628;6.664;2022-11-15T18:06:29;13.40;99.90
9907;DHT22;4992;51.628;6.664;2022-11-15T18:08:55;13.40;99.90